aviador You're here:

KMKG Decoded Metar

MUSKEGON in MI, USA
Report Time2018-01-18 08:55:00
UTC Time2018-01-18 09:56:30
Flight Rules vfr VFR
Wind250° at 17 Gusting to 22 kt
W.Decomp.*RWY 24: 16.5 kt HW 4.1 kt RCW
RWY 32: 6.9 kt HW 15.5 kt LCW
W.Rank250° ranks 14
Current wind is above 250° avg. (8.9)
Visibility9999 m
Phenomena:N/A
Clouds:Few 021 Hf
Expected CloudBase > 2,400 ft AGL from Temp-Dew spread
CeilingNone
Temp-3°C (ISA -17)
Dew Point-9°C (64% RH)
AAT-12.1°C
QNH1018 hPa
Density Alt-1,558 ft
Elevation627 ft
Report Wrong Elevation
Raw Report
KMKG 180855Z AUTO 25017G22KT 10SM FEW021 M03/M09 A3006 RMK AO2
SLP188 T10331089 58013 $=

Extra information for KMKG:More info

Metar Taf Metar & Taf Last 4 Metars F.Rules Stats Wind Profile Meteogram Temp Stats Airport Information Weather charts Add Link Nearby VenuesMetar ALERT Operation Metar Decoded Social comments

AIRNAV info for KMKG